createdAt,value
2018-08-03T00:04:30.821Z,7.03
2018-08-03T00:09:23.845Z,7.28
2018-08-03T00:14:16.848Z,8.03
2018-08-03T00:19:09.875Z,8.23
2018-08-03T00:24:02.896Z,7.97
2018-08-03T00:28:55.876Z,8.00
2018-08-03T00:33:48.952Z,6.75
2018-08-03T00:38:41.932Z,7.78
2018-08-03T00:43:34.893Z,6.85
2018-08-03T00:48:27.879Z,7.60
2018-08-03T00:53:20.888Z,7.58
2018-08-03T00:58:13.900Z,7.22
2018-08-03T01:03:07.981Z,7.42
2018-08-03T01:08:00.968Z,7.22
2018-08-03T01:12:53.961Z,8.20
2018-08-03T01:17:46.966Z,7.90
2018-08-03T01:22:39.972Z,8.65
2018-08-03T01:27:33.062Z,8.18
2018-08-03T01:32:26.057Z,8.88
2018-08-03T01:37:19.047Z,9.28
2018-08-03T01:42:12.064Z,10.23
2018-08-03T01:47:05.228Z,9.50
2018-08-03T01:51:58.243Z,9.80
2018-08-03T01:56:51.256Z,9.98
2018-08-03T02:01:44.239Z,9.33
2018-08-03T02:06:37.252Z,9.28
2018-08-03T02:11:30.314Z,8.80
2018-08-03T02:16:23.332Z,10.03
2018-08-03T02:21:16.273Z,9.60
2018-08-03T02:26:09.394Z,9.18
2018-08-03T02:31:02.417Z,10.00
2018-08-03T02:35:55.520Z,10.40
2018-08-03T02:40:48.538Z,9.98
2018-08-03T02:45:41.636Z,9.98
2018-08-03T02:50:34.666Z,10.85
2018-08-03T02:55:27.704Z,10.75
2018-08-03T03:00:20.745Z,9.98
2018-08-03T03:05:13.774Z,10.65
2018-08-03T03:10:06.763Z,10.50
2018-08-03T03:14:59.798Z,10.23
2018-08-03T03:19:52.827Z,10.38
2018-08-03T03:24:45.802Z,10.20
2018-08-03T03:29:38.802Z,9.40
2018-08-03T03:34:31.862Z,9.55
2018-08-03T03:39:24.862Z,10.40
2018-08-03T03:44:17.831Z,10.10
2018-08-03T03:49:10.820Z,10.35
2018-08-03T03:54:03.770Z,10.80
2018-08-03T03:58:56.753Z,11.10
2018-08-03T04:03:49.772Z,10.77
2018-08-03T04:08:42.748Z,11.23
2018-08-03T04:13:35.747Z,11.73
2018-08-03T04:18:28.720Z,11.65
2018-08-03T04:23:21.770Z,10.63
2018-08-03T04:28:14.788Z,12.05
2018-08-03T04:33:07.756Z,11.33
2018-08-03T04:38:00.781Z,10.32
2018-08-03T04:42:53.792Z,10.45
2018-08-03T04:47:46.742Z,9.88
2018-08-03T04:52:39.773Z,10.15
2018-08-03T04:57:32.748Z,9.55
2018-08-03T05:02:25.797Z,9.73
2018-08-03T05:07:18.810Z,9.90
2018-08-03T05:12:11.872Z,9.18
2018-08-03T05:17:04.888Z,9.25
2018-08-03T05:21:57.922Z,8.78
2018-08-03T05:26:50.924Z,8.58
2018-08-03T05:31:43.955Z,9.63
2018-08-03T05:36:36.961Z,9.18
2018-08-03T05:41:29.923Z,9.18
2018-08-03T05:46:22.984Z,8.25
2018-08-03T05:51:16.023Z,9.43
2018-08-03T05:56:09.053Z,8.85
2018-08-03T06:01:02.015Z,9.43
2018-08-03T06:05:55.505Z,9.15
2018-08-03T06:10:51.684Z,9.18
2018-08-03T06:15:44.713Z,8.20
2018-08-03T06:20:37.738Z,7.22
2018-08-03T06:25:30.708Z,7.90
2018-08-03T06:30:23.884Z,9.10
2018-08-03T06:35:16.884Z,9.15
2018-08-03T06:40:12.237Z,9.15
2018-08-03T06:45:10.067Z,10.40
2018-08-03T06:50:05.567Z,10.35
2018-08-03T06:54:59.150Z,10.30
2018-08-03T06:59:52.751Z,9.00
2018-08-03T07:04:46.072Z,10.13
2018-08-03T07:09:39.710Z,11.85
2018-08-03T07:14:33.130Z,10.65
2018-08-03T07:19:40.715Z,12.07
2018-08-03T07:24:34.928Z,11.93
2018-08-03T07:29:27.982Z,12.00
2018-08-03T07:34:20.956Z,11.40
2018-08-03T07:39:13.977Z,10.85
2018-08-03T07:44:15.495Z,11.78
2018-08-03T07:49:09.670Z,12.80
2018-08-03T07:54:04.557Z,11.55
2018-08-03T07:58:58.038Z,10.70
2018-08-03T08:03:51.731Z,13.18
2018-08-03T08:08:45.514Z,12.20
2018-08-03T08:13:38.490Z,13.55
2018-08-03T08:18:31.732Z,11.97
2018-08-03T08:23:51.881Z,12.43
2018-08-03T08:28:52.043Z,12.95
2018-08-03T08:33:45.724Z,12.30
2018-08-03T08:38:40.616Z,11.20
2018-08-03T08:43:37.481Z,10.63
2018-08-03T08:48:31.188Z,10.60
2018-08-03T08:53:24.966Z,11.55
2018-08-03T08:58:18.426Z,11.12
2018-08-03T09:03:12.404Z,10.65
2018-08-03T09:08:09.820Z,11.12
2018-08-03T09:13:02.841Z,10.88
2018-08-03T09:17:56.132Z,10.60
2018-08-03T09:22:50.155Z,11.70
2018-08-03T09:27:43.214Z,11.33
2018-08-03T09:32:37.391Z,12.65
2018-08-03T09:37:32.417Z,11.83
2018-08-03T09:42:29.329Z,11.88
2018-08-03T09:47:23.247Z,10.95
2018-08-03T09:52:16.341Z,11.57
2018-08-03T09:57:09.415Z,12.03
2018-08-03T10:02:02.536Z,11.30
2018-08-03T10:06:57.007Z,10.93
2018-08-03T10:11:50.262Z,12.95
2018-08-03T10:16:43.347Z,13.43
2018-08-03T10:21:36.369Z,11.97
2018-08-03T10:26:30.089Z,12.03
2018-08-03T10:31:23.186Z,12.47
2018-08-03T10:36:16.250Z,11.70
2018-08-03T10:41:10.314Z,12.18
2018-08-03T10:46:03.366Z,12.00
2018-08-03T10:50:56.447Z,11.93
2018-08-03T10:55:50.648Z,11.20
2018-08-03T11:00:44.316Z,12.35
2018-08-03T11:05:37.419Z,11.73
2018-08-03T11:10:30.469Z,11.35
2018-08-03T11:15:23.567Z,11.80
2018-08-03T11:20:16.864Z,11.33
2018-08-03T11:25:10.014Z,11.33
2018-08-03T11:30:04.741Z,11.43
2018-08-03T11:34:57.764Z,11.38
2018-08-03T11:39:50.818Z,11.93
2018-08-03T11:44:43.837Z,11.30
2018-08-03T11:49:36.990Z,11.08
2018-08-03T11:54:29.952Z,11.22
2018-08-03T11:59:23.163Z,11.25
2018-08-03T12:04:16.118Z,10.98
2018-08-03T12:09:09.284Z,10.80
2018-08-03T12:14:02.437Z,10.55
2018-08-03T12:18:55.756Z,10.60
2018-08-03T12:23:48.910Z,10.88
2018-08-03T12:28:41.851Z,9.63
2018-08-03T12:33:34.909Z,10.13
2018-08-03T12:38:28.068Z,10.98
2018-08-03T12:43:21.146Z,9.25
2018-08-03T12:48:14.279Z,9.20
2018-08-03T12:53:07.315Z,10.10
2018-08-03T12:58:00.369Z,9.03
2018-08-03T13:02:53.410Z,9.23
2018-08-03T13:07:51.248Z,9.93
2018-08-03T13:12:44.541Z,9.50
2018-08-03T13:17:37.730Z,9.63
2018-08-03T13:22:30.857Z,9.90
2018-08-03T13:27:24.035Z,8.65
2018-08-03T13:32:17.011Z,9.35
2018-08-03T13:37:10.053Z,8.95
2018-08-03T13:42:03.116Z,9.00
2018-08-03T13:46:56.188Z,9.53
2018-08-03T13:51:51.825Z,9.13
2018-08-03T13:56:44.847Z,9.08
2018-08-03T14:01:50.235Z,8.90
2018-08-03T14:06:43.324Z,9.23
2018-08-03T14:11:36.413Z,9.35
2018-08-03T14:16:29.559Z,8.93
2018-08-03T14:21:22.632Z,7.75
2018-08-03T14:26:16.195Z,9.00
2018-08-03T14:31:21.920Z,9.48
2018-08-03T14:36:15.796Z,9.00
2018-08-03T14:41:08.919Z,9.03
2018-08-03T14:46:01.919Z,8.63
2018-08-03T14:50:54.996Z,8.28
2018-08-03T14:55:48.483Z,8.70
2018-08-03T15:00:41.544Z,9.25
2018-08-03T15:05:34.628Z,9.90
2018-08-03T15:10:27.766Z,10.30
2018-08-03T15:15:20.841Z,9.88
2018-08-03T15:20:13.897Z,9.93
2018-08-03T15:25:07.009Z,10.10
2018-08-03T15:30:00.104Z,10.18
2018-08-03T15:34:53.119Z,10.10
2018-08-03T15:39:46.113Z,10.08
2018-08-03T15:44:39.137Z,10.18
2018-08-03T15:49:32.146Z,9.63
2018-08-03T15:54:25.137Z,9.35
2018-08-03T15:59:18.300Z,10.05
2018-08-03T16:04:11.309Z,9.63
2018-08-03T16:09:06.983Z,10.32
2018-08-03T16:14:00.099Z,10.10
2018-08-03T16:18:53.187Z,10.68
2018-08-03T16:23:46.145Z,10.75
2018-08-03T16:28:39.183Z,9.63
2018-08-03T16:33:32.170Z,10.58
2018-08-03T16:38:25.172Z,10.20
2018-08-03T16:43:18.197Z,9.60
2018-08-03T16:48:11.209Z,10.68
2018-08-03T16:53:04.451Z,10.10
2018-08-03T16:57:57.565Z,11.53
2018-08-03T17:02:50.604Z,10.03
2018-08-03T17:07:43.870Z,10.15
2018-08-03T17:12:36.885Z,10.48
2018-08-03T17:17:29.878Z,11.28
2018-08-03T17:22:22.892Z,10.38
2018-08-03T17:27:15.916Z,11.12
2018-08-03T17:32:08.936Z,10.10
2018-08-03T17:37:02.070Z,10.58
2018-08-03T17:41:54.945Z,10.68
2018-08-03T17:46:48.000Z,11.20
2018-08-03T17:51:40.996Z,10.70
2018-08-03T17:56:34.016Z,10.65
2018-08-03T18:01:27.091Z,10.80
2018-08-03T18:06:20.516Z,10.00
2018-08-03T18:11:13.448Z,10.68
2018-08-03T18:16:07.007Z,10.75
2018-08-03T18:21:00.077Z,11.53
2018-08-03T18:25:53.081Z,10.55
2018-08-03T18:30:46.073Z,10.65
2018-08-03T18:35:38.996Z,10.15
2018-08-03T18:40:32.236Z,11.05
2018-08-03T18:45:25.249Z,11.30
2018-08-03T18:50:18.240Z,10.60
2018-08-03T18:55:11.267Z,10.88
2018-08-03T19:00:04.581Z,10.78
2018-08-03T19:04:57.540Z,10.90
2018-08-03T19:09:50.562Z,11.12
2018-08-03T19:14:43.568Z,10.68
2018-08-03T19:19:36.609Z,10.60
2018-08-03T19:24:29.620Z,11.08
2018-08-03T19:29:22.664Z,10.93
2018-08-03T19:34:15.741Z,11.03
2018-08-03T19:39:10.087Z,10.55
2018-08-03T19:44:03.278Z,11.15
2018-08-03T19:48:56.275Z,10.93
2018-08-03T19:53:49.248Z,11.10
2018-08-03T19:58:42.354Z,10.72
2018-08-03T20:03:35.326Z,11.03
2018-08-03T20:08:28.289Z,10.60
2018-08-03T20:13:21.358Z,10.38
2018-08-03T20:18:14.303Z,10.93
2018-08-03T20:23:07.308Z,11.63
2018-08-03T20:28:00.258Z,10.60
2018-08-03T20:32:53.279Z,10.55
2018-08-03T20:37:46.272Z,10.90
2018-08-03T20:42:39.291Z,10.98
2018-08-03T20:47:32.307Z,11.00
2018-08-03T20:52:25.336Z,10.68
2018-08-03T20:57:18.359Z,10.80
2018-08-03T21:02:11.364Z,10.93
2018-08-03T21:07:04.373Z,11.55
2018-08-03T21:11:57.460Z,11.08
2018-08-03T21:16:50.428Z,10.93
2018-08-03T21:21:43.437Z,10.88
2018-08-03T21:26:36.452Z,10.98
2018-08-03T21:31:29.496Z,11.28
2018-08-03T21:36:22.491Z,10.70
2018-08-03T21:41:15.488Z,10.72
2018-08-03T21:46:08.502Z,10.93
2018-08-03T21:51:01.507Z,11.05
2018-08-03T21:55:54.488Z,11.15
2018-08-03T22:00:47.508Z,11.93
2018-08-03T22:05:40.442Z,12.03
2018-08-03T22:10:33.416Z,12.58
2018-08-03T22:15:26.420Z,12.55
2018-08-03T22:20:19.409Z,12.35
2018-08-03T22:25:12.433Z,12.20
2018-08-03T22:30:05.402Z,12.20
2018-08-03T22:34:58.451Z,13.20
2018-08-03T22:39:51.443Z,13.55
2018-08-03T22:44:44.476Z,13.85
2018-08-03T22:49:37.591Z,14.03
2018-08-03T22:54:30.533Z,13.85
2018-08-03T22:59:23.516Z,12.75
2018-08-03T23:04:16.450Z,12.68
2018-08-03T23:09:09.848Z,13.18
2018-08-03T23:14:02.988Z,13.38
2018-08-03T23:18:55.984Z,13.00
2018-08-03T23:23:48.965Z,13.00
2018-08-03T23:28:42.005Z,12.58
2018-08-03T23:33:35.061Z,14.05
2018-08-03T23:38:28.085Z,14.38
2018-08-03T23:43:21.047Z,14.13
2018-08-03T23:48:14.020Z,12.82
2018-08-03T23:53:07.013Z,13.08
2018-08-03T23:58:00.021Z,12.98
